Latest Weather Observations for Swanbourne

IDW60901

Issued at 2:21 pm WST Sunday 11 April 2021 (issued every 10 minutes, with the page automatically refreshed every 10 minutes)

About weather observations | Map of Perth area stations | Latest observations for Perth area | Other Formats
Station Details ID: 009215 Name: SWANBOURNE Lat: -31.96 Lon: 115.76 Height: 40.96 m
Data from the previous 72 hours. | See also: Recent months at Swanbourne
Date/Time
WST
Temp
°C
App
Temp
°C
Dew
Point
°C
Rel
Hum
%
Delta-T
°C
Wind Press
QNH
hPa
Press
MSL
hPa
Rain since
9am
mm
Dir  Spd
km/h
Gust
km/h
Spd
kts
Gust
kts
11/02:00pm 19.9 18.2 15.7 77 2.5 ENE 19 32 10 17 - - 10.2
11/01:30pm 19.3 17.2 16.3 83 1.8 E 22 35 12 19 - - 10.2
11/01:00pm 18.1 15.4 16.6 91 0.9 E 26 39 14 21 - - 10.2
11/12:30pm 17.0 13.8 16.2 95 0.5 E 28 39 15 21 - - 10.2
11/12:00pm 16.6 14.8 16.0 96 0.4 E 20 32 11 17 - - 9.8
11/11:30am 16.6 14.9 15.8 95 0.5 E 19 35 10 19 - - 7.8
11/11:00am 16.6 14.3 15.8 95 0.5 ENE 22 37 12 20 - - 4.2
11/10:30am 16.6 14.3 15.6 94 0.6 ENE 22 35 12 19 - - 2.2
11/10:00am 16.5 13.3 15.2 92 0.8 E 26 39 14 21 - - 1.0
11/09:30am 16.1 12.8 15.0 93 0.6 E 26 35 14 19 - - 0.6
11/09:00am 15.9 13.3 14.8 93 0.6 E 22 33 12 18 - - 6.4
11/08:30am 16.0 12.9 14.5 91 0.9 E 24 33 13 18 - - 4.8
11/08:00am 16.0 13.1 14.0 88 1.1 E 22 35 12 19 - - 3.8
11/07:30am 16.9 12.7 13.4 80 2.0 E 28 39 15 21 - - 2.8
11/07:00am 18.0 14.0 12.9 72 2.9 E 26 37 14 20 - - 2.6
11/06:30am 18.1 14.4 12.8 71 3.0 E 24 39 13 21 - - 2.4
11/06:00am 18.0 14.8 13.1 73 2.8 E 22 33 12 18 - - 2.4
11/05:30am 17.4 14.4 13.7 79 2.1 E 22 32 12 17 - - 2.4
11/05:00am 17.7 15.0 13.4 76 2.4 E 20 30 11 16 - - 2.0
11/04:30am 18.6 15.9 12.8 69 3.3 E 19 35 10 19 - - 1.6
11/04:00am 19.3 16.8 12.3 64 3.9 E 17 26 9 14 - - 1.4
11/03:30am 20.3 17.3 12.0 59 4.6 ENE 19 26 10 14 - - 0.8
11/03:00am 20.1 17.1 11.8 59 4.6 ENE 19 30 10 16 - - 0.6
11/02:30am 22.3 18.5 9.8 45 6.8 ENE 20 32 11 17 - - 0.0
11/02:00am 23.7 19.0 7.8 36 8.4 E 22 32 12 17 - - 0.0
11/01:30am 23.3 19.3 8.2 38 8.0 ENE 19 30 10 16 - - 0.0
11/01:00am 24.2 19.8 7.4 34 8.8 E 20 33 11 18 - - 0.0
11/12:30am 24.8 20.3 7.0 32 9.3 E 20 35 11 19 - - 0.0
11/12:00am 24.7 20.2 6.9 32 9.3 E 20 33 11 18 - - 0.0
 
Date/Time
WST
Temp
°C
App
Temp
°C
Dew
Point
°C
Rel
Hum
%
Delta-T
°C
Wind Press
QNH
hPa
Press
MSL
hPa
Rain since
9am
mm
Dir  Spd
km/h
Gust
km/h
Spd
kts
Gust
kts
10/11:30pm 25.0 20.6 7.2 32 9.4 E 20 39 11 21 - - 0.0
10/11:00pm 25.1 20.9 7.3 32 9.4 E 19 32 10 17 - - 0.0
10/10:30pm 25.1 20.2 6.8 31 9.6 E 22 39 12 21 - - 0.0
10/10:00pm 25.1 20.6 6.8 31 9.6 E 20 32 11 17 - - 0.0
10/09:30pm 25.3 20.0 7.0 31 9.6 E 24 39 13 21 - - 0.0
10/09:00pm 25.3 21.0 7.0 31 9.6 E 19 32 10 17 - - 0.0
10/08:30pm 25.4 21.0 7.5 32 9.5 E 20 32 11 17 - - 0.0
10/08:00pm 25.2 21.9 8.2 34 9.1 ESE 15 22 8 12 - - 0.0
10/07:30pm 25.5 22.7 8.5 34 9.2 ESE 13 20 7 11 - - 0.0
10/07:00pm 25.7 22.9 8.7 34 9.2 E 13 20 7 11 - - 0.0
10/06:30pm 25.8 23.4 8.8 34 9.2 E 11 20 6 11 - - 0.0
10/06:00pm 26.3 23.9 8.8 33 9.5 E 11 19 6 10 - - 0.0
10/05:30pm 26.7 23.2 8.6 32 9.8 E 17 32 9 17 - - 0.0
10/05:00pm 27.1 23.3 9.0 32 9.9 E 19 30 10 16 - - 0.0
10/04:30pm 27.4 23.7 9.3 32 10.0 E 19 30 10 16 - - 0.0
10/04:00pm 27.8 25.1 9.1 31 10.3 E 13 30 7 16 - - 0.0
10/03:30pm 27.4 23.6 9.7 33 9.8 ESE 20 33 11 18 - - 0.0
10/03:00pm 27.9 24.1 9.7 32 10.1 E 20 32 11 17 - - 0.0
10/02:30pm 27.1 22.2 9.9 34 9.6 E 26 39 14 21 - - 0.0
10/02:00pm 27.8 23.3 10.1 33 9.9 E 24 39 13 21 - - 0.0
10/01:30pm 27.4 23.7 10.2 34 9.6 E 20 39 11 21 - - 0.0
10/01:00pm 26.7 22.2 10.0 35 9.3 E 24 44 13 24 - - 0.0
10/12:30pm 25.6 20.4 10.2 38 8.6 E 28 46 15 25 - - 0.0
10/12:03pm 24.9 19.7 10.4 40 8.1 E 28 50 15 27 - - 0.0
10/12:00pm 25.2 20.9 10.6 40 8.2 E 24 41 13 22 - - 0.0
10/11:37am 24.7 18.8 10.6 41 7.9 E 32 52 17 28 - - 0.0
10/11:30am 24.2 18.1 10.5 42 7.6 E 33 50 18 27 - - 0.0
10/11:01am 24.0 18.5 10.7 43 7.4 E 30 48 16 26 - - 0.0
10/11:00am 24.0 18.2 10.7 43 7.4 E 32 48 17 26 - - 0.0
10/10:30am 23.3 17.9 11.0 46 6.9 E 30 52 16 28 - - 0.0
10/10:00am 22.1 15.8 11.2 50 6.1 E 35 56 19 30 - - 0.0
10/09:32am 21.6 16.4 11.6 53 5.6 E 30 48 16 26 - - 0.0
10/09:30am 21.5 16.4 11.8 54 5.4 E 30 43 16 23 - - 0.0
10/09:00am 20.1 14.8 11.3 57 4.8 E 30 50 16 27 - - 0.0
10/08:38am 19.4 14.5 11.4 60 4.4 E 28 48 15 26 - - 0.0
10/08:30am 19.4 15.4 11.7 61 4.3 E 24 39 13 21 - - 0.0
10/08:00am 18.4 13.6 11.5 64 3.8 E 28 48 15 26 - - 0.0
10/07:43am 18.2 13.4 11.7 66 3.6 E 28 46 15 25 - - 0.0
10/07:30am 17.9 13.9 11.7 67 3.4 E 24 39 13 21 - - 0.0
10/07:00am 17.6 13.6 11.9 69 3.1 E 24 37 13 20 - - 0.0
10/06:30am 17.6 13.7 12.1 70 3.0 E 24 35 13 19 - - 0.0
10/06:00am 17.6 13.7 12.1 70 3.0 E 24 43 13 23 - - 0.0
10/05:30am 17.8 14.0 12.5 71 2.9 E 24 37 13 20 - - 0.0
10/05:00am 18.0 14.2 12.5 70 3.1 E 24 39 13 21 - - 0.0
10/04:30am 18.1 13.7 12.8 71 3.0 E 28 41 15 22 - - 0.0
10/04:00am 18.2 14.1 12.6 70 3.1 E 26 44 14 24 - - 0.0
10/03:30am 18.3 14.7 13.0 71 3.0 ESE 24 39 13 21 - - 0.0
10/03:00am 18.5 14.5 13.1 71 3.0 ESE 26 44 14 24 - - 0.0
10/02:30am 18.5 14.1 12.9 70 3.1 ESE 28 41 15 22 - - 0.0
10/02:00am 18.6 15.0 13.0 70 3.2 ESE 24 39 13 21 - - 0.0
10/01:30am 18.7 15.1 12.9 69 3.3 ESE 24 43 13 23 - - 0.0
10/01:00am 18.8 15.6 13.0 69 3.3 ESE 22 41 12 22 - - 0.0
10/12:30am 18.8 15.6 13.0 69 3.3 ESE 22 39 12 21 - - 0.0
10/12:00am 19.1 16.0 13.3 69 3.3 ESE 22 37 12 20 - - 0.0
 
Date/Time
WST
Temp
°C
App
Temp
°C
Dew
Point
°C
Rel
Hum
%
Delta-T
°C
Wind Press
QNH
hPa
Press
MSL
hPa
Rain since
9am
mm
Dir  Spd
km/h
Gust
km/h
Spd
kts
Gust
kts
09/11:30pm 19.4 16.3 13.3 68 3.5 ESE 22 39 12 21 - - 0.0
09/11:00pm 19.5 16.7 13.2 67 3.6 ESE 20 33 11 18 - - 0.0
09/10:30pm 19.7 16.9 13.2 66 3.7 ESE 20 30 11 16 - - 0.0
09/10:00pm 19.8 17.3 13.5 67 3.6 ESE 19 33 10 18 - - 0.0
09/09:30pm 20.2 17.2 13.6 66 3.8 ESE 22 39 12 21 - - 0.0
09/09:00pm 20.5 17.5 13.7 65 3.9 ESE 22 37 12 20 - - 0.0
09/08:30pm 21.1 18.5 13.8 63 4.2 ESE 20 35 11 19 - - 0.0
09/08:00pm 21.8 18.8 13.7 60 4.7 ESE 22 35 12 19 - - 0.0
09/07:30pm 22.7 19.1 13.2 55 5.5 ESE 24 41 13 22 - - 0.0
09/07:00pm 23.2 21.2 12.8 52 6.0 ESE 15 28 8 15 - - 0.0
09/06:30pm 23.6 21.2 12.6 50 6.3 ESE 17 28 9 15 - - 0.0
09/06:00pm 24.2 21.1 12.2 47 6.9 ESE 20 33 11 18 - - 0.0
09/05:30pm 24.8 21.8 12.4 46 7.1 ESE 20 35 11 19 - - 0.0
09/05:00pm 25.2 22.5 12.8 46 7.2 ESE 19 33 10 18 - - 0.0
09/04:30pm 25.4 22.4 12.6 45 7.4 ESE 20 33 11 18 - - 0.0
09/04:00pm 25.7 22.3 12.5 44 7.6 SE 22 33 12 18 - - 0.0
09/03:30pm 25.9 23.1 12.7 44 7.7 SE 19 32 10 17 - - 0.0
09/03:00pm 25.9 22.3 13.1 45 7.5 SE 24 39 13 21 - - 0.0
09/02:30pm 25.5 22.8 13.0 46 7.3 SE 19 37 10 20 - - 0.0
09/02:00pm 25.4 22.6 13.3 47 7.1 SE 20 32 11 17 - - 0.0
09/01:30pm 25.5 23.0 13.4 47 7.1 ESE 19 30 10 16 - - 0.0
09/01:00pm 25.6 23.1 13.5 47 7.1 SE 19 28 10 15 - - 0.0
09/12:30pm 24.1 21.3 12.7 49 6.6 E 19 32 10 17 - - 0.0
09/12:00pm 23.6 20.8 13.2 52 6.0 ESE 20 32 11 17 - - 0.0
09/11:30am 22.8 20.0 13.3 55 5.5 ESE 20 39 11 21 - - 0.0
09/11:00am 23.0 20.4 13.8 56 5.4 ESE 20 35 11 19 - - 0.0
09/10:30am 21.7 19.1 13.1 58 4.9 ESE 19 30 10 16 - - 0.0
09/10:00am 20.5 16.8 12.7 61 4.4 SE 24 39 13 21 - - 0.0
09/09:30am 20.5 17.9 13.2 63 4.2 SE 19 30 10 16 - - 0.0
09/09:00am 19.4 16.1 12.9 66 3.7 ESE 22 41 12 22 - - 0.0
09/08:30am 18.5 15.7 12.5 68 3.3 ESE 19 39 10 21 - - 0.0
09/08:00am 17.9 15.5 12.6 71 3.0 SE 17 28 9 15 - - 0.0
09/07:30am 17.5 15.0 12.2 71 2.9 SE 17 26 9 14 - - 0.0
09/07:00am 17.5 15.8 12.4 72 2.8 SE 13 24 7 13 - - 0.0
09/06:30am 17.3 14.8 12.4 73 2.7 ESE 17 28 9 15 - - 0.0
09/06:00am 17.1 14.6 12.4 74 2.6 ESE 17 30 9 16 - - 0.0
09/05:30am 17.1 14.6 12.2 73 2.7 ESE 17 28 9 15 - - 0.0
09/05:00am 17.1 13.5 12.0 72 2.8 SE 22 35 12 19 - - 0.0
09/04:30am 17.2 14.9 11.9 71 2.9 SE 15 26 8 14 - - 0.0
09/04:00am 17.3 14.3 11.8 70 3.0 SE 19 37 10 20 - - 0.0
09/03:30am 17.5 15.3 12.0 70 3.0 SE 15 26 8 14 - - 0.0
09/03:00am 17.8 15.3 12.3 70 3.0 SE 17 32 9 17 - - 0.0
09/02:30am 17.6 15.0 12.1 70 3.0 ESE 17 32 9 17 - - 0.0
09/02:00am 17.6 15.4 12.1 70 3.0 SE 15 24 8 13 - - 0.0
09/01:30am 17.6 15.0 12.1 70 3.0 SE 17 26 9 14 - - 0.0
09/01:00am 17.7 14.8 12.4 71 2.9 SE 19 32 10 17 - - 0.0
09/12:30am 17.8 14.9 12.3 70 3.0 SE 19 41 10 22 - - 0.0
09/12:00am 18.1 14.6 12.3 69 3.2 SE 22 37 12 20 - - 0.0
 
Date/Time
WST
Temp
°C
App
Temp
°C
Dew
Point
°C
Rel
Hum
%
Delta-T
°C
Wind Press
QNH
hPa
Press
MSL
hPa
Rain since
9am
mm
Dir  Spd
km/h
Gust
km/h
Spd
kts
Gust
kts
08/11:30pm 18.2 15.2 12.4 69 3.2 SE 20 35 11 19 - - 0.0
08/11:00pm 18.0 15.9 12.5 70 3.1 SE 15 24 8 13 - - 0.0
08/10:30pm 18.3 15.9 12.5 69 3.2 SE 17 30 9 16 - - 0.0
08/10:00pm 18.6 15.2 12.6 68 3.4 SE 22 39 12 21 - - 0.0
08/09:30pm 18.9 15.9 12.4 66 3.6 SE 20 32 11 17 - - 0.0
08/09:00pm 19.6 17.1 12.4 63 4.0 SE 17 32 9 17 - - 0.0
08/08:30pm 20.0 17.8 12.0 60 4.5 SE 15 26 8 14 - - 0.0
08/08:00pm 20.6 17.6 12.1 58 4.8 SE 19 43 10 23 - - 0.0
08/07:30pm 20.7 17.5 11.9 57 4.9 SE 20 30 11 16 - - 0.0
08/07:00pm 21.3 17.7 11.9 55 5.3 SSE 22 35 12 19 - - 0.0
08/06:30pm 21.8 18.6 11.8 53 5.6 SSE 20 33 11 18 - - 0.0
08/06:00pm 22.5 19.3 11.9 51 6.0 SSE 20 37 11 20 - - 0.0
08/05:30pm 23.4 20.4 11.8 48 6.6 SSE 19 32 10 17 - - 0.0
08/05:00pm 24.4 21.2 11.4 44 7.3 SE 19 30 10 16 - - 0.0
08/04:30pm 24.9 22.0 11.1 42 7.8 SE 17 26 9 14 - - 0.0
08/04:00pm 24.8 21.6 11.4 43 7.6 SE 19 30 10 16 - - 0.0
08/03:30pm 25.7 22.6 11.5 41 8.1 SE 19 32 10 17 - - 0.0
08/03:00pm 25.1 21.8 11.6 42 7.7 SSE 20 32 11 17 - - 0.0
08/02:30pm 25.0 21.8 11.9 44 7.5 SSE 20 32 11 17 - - 0.0

Latest Capital City Observations: Canberra | Sydney | Melbourne | Brisbane | Adelaide | Perth | Hobart | Darwin

Other formats

Comma delimited format used in spreadsheet applications
http://www.bom.gov.au/fwo/IDW60901/IDW60901.94614.axf

JavaScript Object Notation format (JSON) in row-major order
http://www.bom.gov.au/fwo/IDW60901/IDW60901.94614.json

Data quality

Most of these data are generated automatically and are frequently updated. Quality checks on data are not normally performed. It is possible for incorrect values to appear. Refer to information at About Latest Weather Observations and please check the disclaimer before using these data.